Time;durP1;ratioP1;P1;durP2;ratioP2;P2;SDS_P1;SDS_P2;PMS_P1;PMS_P2;Temp;Humidity;BMP_temperature;BMP_pressure;BME280_temperature;BME280_humidity;BME280_pressure;Samples;Min_cycle;Max_cycle;Signal;HPM_P1;HPM_P2
2021/11/13 00:01:58;;;;;;;;;;;;;;;7.70;100.00;100922.41;5052889;28;19947;-48
2021/11/13 00:04:25;;;;;;;;;;;;;;;7.72;100.00;100931.06;5052939;28;19929;-46
2021/11/13 00:06:52;;;;;;;;;;;;;;;7.65;100.00;100924.41;5052890;28;19971;-45
2021/11/13 00:09:18;;;;;;;;;;;;;;;7.71;100.00;100926.75;5052505;28;20438;-45
2021/11/13 00:11:45;;;;;;;;;;;;;;;7.71;100.00;100914.47;5052849;28;20042;-44
2021/11/13 00:14:16;;;;;;;;;;;;;;;7.76;100.00;100924.72;5052739;28;19925;-46
2021/11/13 00:16:44;;;;;;;;;;;;;;;7.77;100.00;100908.06;5052091;28;19924;-45
2021/11/13 00:19:11;;;;;;;;;;;;;;;7.79;100.00;100914.94;5051650;28;19925;-46
2021/11/13 00:21:38;;;;;;;;;;;;;;;7.73;100.00;100903.91;5051499;28;19925;-50
2021/11/13 00:24:05;;;;;;;;;;;;;;;7.79;100.00;100901.00;5051359;28;19924;-44
2021/11/13 00:26:32;;;;;;;;;;;;;;;7.73;100.00;100901.31;5049231;28;19951;-46
2021/11/13 00:28:59;;;;;;;;;;;;;;;7.71;100.00;100898.78;5038522;28;19943;-45
2021/11/13 00:31:26;;;;;;;;;;;;;;;7.77;100.00;100900.22;5046964;28;19932;-46
2021/11/13 00:33:52;;;;;;;;;;;;;;;7.78;100.00;100894.06;5037332;28;19925;-47
2021/11/13 00:36:19;;;;;;;;;;;;;;;7.76;100.00;100891.53;5041731;28;19971;-48
2021/11/13 00:38:46;;;;;;;;;;;;;;;7.81;100.00;100885.19;5039330;28;19932;-50
2021/11/13 00:41:12;;;;;;;;;;;;;;;7.78;100.00;100879.22;5053679;28;19929;-45
2021/11/13 00:43:39;;;;;;;;;;;;;;;7.82;100.00;100873.81;5032050;28;19925;-48
2021/11/13 00:46:06;;;;;;;;;;;;;;;7.84;100.00;100872.81;5032169;28;19929;-46
2021/11/13 00:48:32;;;;;;;;;;;;;;;7.80;100.00;100866.03;5047696;28;19929;-48
2021/11/13 00:50:59;;;;;;;;;;;;;;;7.87;100.00;100875.25;5032409;28;19925;-47
2021/11/13 00:53:26;;;;;;;;;;;;;;;7.87;100.00;100867.41;5047726;28;20413;-47
2021/11/13 00:55:52;;;;;;;;;;;;;;;7.86;100.00;100868.31;5032109;28;19925;-46
2021/11/13 00:58:19;;;;;;;;;;;;;;;7.81;100.00;100866.88;5032173;28;19929;-46
2021/11/13 01:00:46;;;;;;;;;;;;;;;7.85;100.00;100865.78;5031193;28;19948;-48
2021/11/13 01:03:12;;;;;;;;;;;;;;;7.81;100.00;100865.09;5032420;28;19925;-51
2021/11/13 01:05:39;;;;;;;;;;;;;;;7.80;100.00;100858.19;5032536;28;19978;-49
2021/11/13 01:08:06;;;;;;;;;;;;;;;7.90;100.00;100855.91;5032612;28;19929;-51
2021/11/13 01:10:32;;;;;;;;;;;;;;;7.84;100.00;100849.25;5032119;28;19929;-47
2021/11/13 01:12:59;;;;;;;;;;;;;;;7.81;100.00;100859.03;5031944;28;19932;-47
2021/11/13 01:15:26;;;;;;;;;;;;;;;7.82;100.00;100858.09;5031993;28;19929;-48
2021/11/13 01:17:52;;;;;;;;;;;;;;;7.80;100.00;100850.34;5032234;28;19925;-47
2021/11/13 01:20:20;;;;;;;;;;;;;;;7.79;100.00;100861.72;5032813;28;20395;-49
2021/11/13 01:22:47;;;;;;;;;;;;;;;7.74;100.00;100848.03;5036259;28;19979;-47
2021/11/13 01:25:14;;;;;;;;;;;;;;;7.79;100.00;100848.63;5036043;28;19932;-45
2021/11/13 01:27:41;;;;;;;;;;;;;;;7.84;100.00;100853.63;5034798;28;19971;-45
2021/11/13 01:30:08;;;;;;;;;;;;;;;7.82;100.00;100847.63;5051215;28;19925;-47
2021/11/13 01:32:35;;;;;;;;;;;;;;;7.80;100.00;100855.56;5035766;28;19925;-47
2021/11/13 01:35:03;;;;;;;;;;;;;;;7.83;100.00;100847.53;5036016;28;19961;-47
2021/11/13 01:37:29;;;;;;;;;;;;;;;7.84;100.00;100841.38;5035638;28;19932;-48
2021/11/13 01:39:56;;;;;;;;;;;;;;;7.85;100.00;100843.06;5035554;28;20292;-46
2021/11/13 01:42:25;;;;;;;;;;;;;;;7.86;100.00;100833.44;5035691;28;19925;-46
2021/11/13 01:44:53;;;;;;;;;;;;;;;7.90;100.00;100842.81;5050656;28;19925;-49
2021/11/13 01:47:20;;;;;;;;;;;;;;;7.87;100.00;100843.84;5035603;28;19987;-49
2021/11/13 01:49:47;;;;;;;;;;;;;;;7.91;100.00;100839.28;5051155;28;20408;-47
2021/11/13 01:52:15;;;;;;;;;;;;;;;7.92;100.00;100836.59;5035479;28;19933;-47
2021/11/13 01:54:42;;;;;;;;;;;;;;;7.90;100.00;100833.19;5035624;28;19995;-47
2021/11/13 01:57:11;;;;;;;;;;;;;;;7.93;100.00;100825.19;5035113;28;19936;-45
2021/11/13 01:59:39;;;;;;;;;;;;;;;7.93;100.00;100824.31;5035248;28;19933;-46
2021/11/13 02:02:06;;;;;;;;;;;;;;;7.92;100.00;100828.72;5034329;28;19944;-46
2021/11/13 02:04:32;;;;;;;;;;;;;;;7.93;100.00;100821.69;5035346;28;19936;-48
2021/11/13 02:06:59;;;;;;;;;;;;;;;7.91;100.00;100820.94;5033994;28;19925;-49
2021/11/13 02:09:26;;;;;;;;;;;;;;;7.94;100.00;100818.16;5034006;28;19933;-46
2021/11/13 02:11:54;;;;;;;;;;;;;;;7.98;100.00;100811.00;5050481;28;19964;-44
2021/11/13 02:14:20;;;;;;;;;;;;;;;7.98;100.00;100811.00;5050233;28;19975;-46
2021/11/13 02:16:47;;;;;;;;;;;;;;;7.99;100.00;100807.41;5035214;28;20380;-44
2021/11/13 02:19:14;;;;;;;;;;;;;;;7.98;100.00;100813.63;5034477;28;19971;-47
2021/11/13 02:21:41;;;;;;;;;;;;;;;7.98;100.00;100805.75;5033192;28;19940;-48
2021/11/13 02:24:08;;;;;;;;;;;;;;;8.00;100.00;100801.25;5034501;28;20434;-48
2021/11/13 02:26:34;;;;;;;;;;;;;;;8.03;100.00;100801.09;5034894;28;19971;-46
2021/11/13 02:29:03;;;;;;;;;;;;;;;8.01;100.00;100793.31;5034738;28;19972;-50
2021/11/13 02:31:37;;;;;;;;;;;;;;;8.05;100.00;100794.00;5034457;28;20335;-51
2021/11/13 02:34:04;;;;;;;;;;;;;;;8.08;100.00;100794.66;5050149;28;19932;-49
2021/11/13 02:36:31;;;;;;;;;;;;;;;8.12;100.00;100792.72;5034731;28;19925;-49
2021/11/13 02:38:58;;;;;;;;;;;;;;;8.07;100.00;100790.38;5049654;28;19932;-48
2021/11/13 02:41:27;;;;;;;;;;;;;;;8.10;100.00;100789.34;5049707;28;19925;-50
2021/11/13 02:43:55;;;;;;;;;;;;;;;8.15;100.00;100794.31;5049638;28;19925;-51
2021/11/13 02:46:22;;;;;;;;;;;;;;;8.16;100.00;100794.25;5034461;28;19925;-46
2021/11/13 02:48:49;;;;;;;;;;;;;;;8.19;100.00;100794.06;5034296;28;20399;-45
2021/11/13 02:51:16;;;;;;;;;;;;;;;8.13;100.00;100792.63;5034275;28;19925;-47
2021/11/13 02:53:43;;;;;;;;;;;;;;;8.12;100.00;100790.94;5033051;28;19929;-47
2021/11/13 02:56:11;;;;;;;;;;;;;;;8.14;100.00;100796.13;5049573;28;20043;-47
2021/11/13 02:58:39;;;;;;;;;;;;;;;8.13;100.00;100794.41;5049342;28;20068;-47
2021/11/13 03:01:08;;;;;;;;;;;;;;;8.15;100.00;100792.53;5049520;28;19936;-45
2021/11/13 03:03:35;;;;;;;;;;;;;;;8.24;100.00;100796.44;5034115;28;19957;-46
2021/11/13 03:06:02;;;;;;;;;;;;;;;8.22;100.00;100791.28;5034054;28;19925;-45
2021/11/13 03:08:32;;;;;;;;;;;;;;;8.23;100.00;100784.25;5049244;28;19932;-46
2021/11/13 03:11:00;;;;;;;;;;;;;;;8.20;100.00;100787.91;5033867;28;19925;-46
2021/11/13 03:13:29;;;;;;;;;;;;;;;8.23;100.00;100792.13;5033861;28;20451;-47
2021/11/13 03:15:56;;;;;;;;;;;;;;;8.25;100.00;100791.13;5033984;28;19931;-49
2021/11/13 03:18:22;;;;;;;;;;;;;;;8.28;100.00;100783.06;5033838;28;19929;-46
2021/11/13 03:20:49;;;;;;;;;;;;;;;8.27;100.00;100789.22;5033942;28;19948;-47
2021/11/13 03:23:16;;;;;;;;;;;;;;;8.27;100.00;100791.84;5048733;28;20020;-45
2021/11/13 03:25:54;;;;;;;;;;;;;;;8.32;100.00;100790.75;5033911;28;19979;-46
2021/11/13 03:28:22;;;;;;;;;;;;;;;8.32;100.00;100789.00;5032916;28;19931;-49
2021/11/13 03:30:48;;;;;;;;;;;;;;;8.32;100.00;100782.88;5033783;28;19926;-45
2021/11/13 03:33:15;;;;;;;;;;;;;;;8.33;100.00;100785.44;5033630;28;20644;-44
2021/11/13 03:35:42;;;;;;;;;;;;;;;8.38;100.00;100787.78;5033595;28;19939;-46
2021/11/13 03:38:10;;;;;;;;;;;;;;;8.42;100.00;100786.69;5033420;28;20415;-46
2021/11/13 03:40:37;;;;;;;;;;;;;;;8.43;100.00;100781.34;5033584;28;20028;-45
2021/11/13 03:43:04;;;;;;;;;;;;;;;8.43;100.00;100776.13;5032951;28;19926;-47
2021/11/13 03:45:31;;;;;;;;;;;;;;;8.43;100.00;100775.28;5048492;28;19925;-47
2021/11/13 03:47:57;;;;;;;;;;;;;;;8.40;100.00;100778.91;5033523;28;19933;-45
2021/11/13 03:50:24;;;;;;;;;;;;;;;8.40;100.00;100775.47;5033369;28;19953;-45
2021/11/13 03:52:51;;;;;;;;;;;;;;;8.46;100.00;100777.75;5033180;28;20293;-48
2021/11/13 03:55:18;;;;;;;;;;;;;;;8.51;100.00;100782.72;5031757;28;19925;-48
2021/11/13 03:57:45;;;;;;;;;;;;;;;8.52;100.00;100776.56;5032831;28;19925;-44
2021/11/13 04:00:11;;;;;;;;;;;;;;;8.48;100.00;100783.75;5032450;28;19929;-47
2021/11/13 04:02:40;;;;;;;;;;;;;;;8.48;100.00;100782.91;5032683;28;20395;-50
2021/11/13 04:05:07;;;;;;;;;;;;;;;8.50;100.00;100775.81;5033083;28;19929;-49
2021/11/13 04:07:34;;;;;;;;;;;;;;;8.55;100.00;100776.38;5048567;28;19963;-44
2021/11/13 04:10:03;;;;;;;;;;;;;;;8.52;100.00;100785.28;5033089;28;19968;-47
2021/11/13 04:12:30;;;;;;;;;;;;;;;8.53;100.00;100786.94;5033085;28;19958;-47
2021/11/13 04:14:57;;;;;;;;;;;;;;;8.55;100.00;100792.97;5032945;28;20668;-51
2021/11/13 04:17:24;;;;;;;;;;;;;;;8.59;100.00;100794.47;5031666;28;20402;-48
2021/11/13 04:19:50;;;;;;;;;;;;;;;8.58;100.00;100790.16;5032448;28;19961;-47
2021/11/13 04:22:17;;;;;;;;;;;;;;;8.62;100.00;100791.66;5032458;28;19933;-46
2021/11/13 04:24:44;;;;;;;;;;;;;;;8.61;100.00;100794.38;5032601;28;20399;-45
2021/11/13 04:27:11;;;;;;;;;;;;;;;8.65;100.00;100795.06;5047745;28;19925;-47
2021/11/13 04:29:38;;;;;;;;;;;;;;;8.66;100.00;100800.22;5032666;28;19929;-50
2021/11/13 04:32:05;;;;;;;;;;;;;;;8.62;100.00;100786.41;5032338;28;19952;-47
2021/11/13 04:34:42;;;;;;;;;;;;;;;8.65;100.00;100789.81;5032358;28;19929;-47
2021/11/13 04:37:15;;;;;;;;;;;;;;;8.62;100.00;100802.16;5032552;28;19925;-46
2021/11/13 04:39:41;;;;;;;;;;;;;;;8.67;100.00;100793.16;5030800;28;19925;-49
2021/11/13 04:42:08;;;;;;;;;;;;;;;8.68;100.00;100802.72;5032461;28;19925;-46
2021/11/13 04:44:35;;;;;;;;;;;;;;;8.67;100.00;100804.53;5031061;28;19925;-48
2021/11/13 04:47:02;;;;;;;;;;;;;;;8.67;100.00;100806.28;5032472;28;19925;-45
2021/11/13 04:49:29;;;;;;;;;;;;;;;8.67;100.00;100808.91;5032582;28;19937;-47
2021/11/13 04:51:56;;;;;;;;;;;;;;;8.70;100.00;100809.59;5032433;28;20307;-46
2021/11/13 04:54:22;;;;;;;;;;;;;;;8.70;100.00;100799.09;5049495;28;19933;-46
2021/11/13 04:56:50;;;;;;;;;;;;;;;8.72;100.00;100814.72;5036655;28;19932;-47
2021/11/13 04:59:17;;;;;;;;;;;;;;;8.68;100.00;100815.84;5051390;28;20610;-45
2021/11/13 05:01:43;;;;;;;;;;;;;;;8.73;100.00;100813.81;5051679;28;19925;-46
2021/11/13 05:04:10;;;;;;;;;;;;;;;8.76;100.00;100816.25;5034995;28;19925;-46
2021/11/13 05:06:37;;;;;;;;;;;;;;;8.77;100.00;100821.41;5036424;28;19925;-49
2021/11/13 05:09:03;;;;;;;;;;;;;;;8.76;100.00;100824.09;5036175;28;19925;-45
2021/11/13 05:11:30;;;;;;;;;;;;;;;8.76;100.00;100827.56;5035188;28;19936;-46
2021/11/13 05:13:57;;;;;;;;;;;;;;;8.76;100.00;100824.94;5036091;28;20028;-45
2021/11/13 05:16:23;;;;;;;;;;;;;;;8.81;100.00;100835.19;5034902;28;19998;-46
2021/11/13 05:18:50;;;;;;;;;;;;;;;8.82;100.00;100823.78;5036107;28;20396;-44
2021/11/13 05:21:16;;;;;;;;;;;;;;;8.80;100.00;100834.31;5036245;28;19925;-48
2021/11/13 05:23:43;;;;;;;;;;;;;;;8.82;100.00;100834.25;5035943;28;20051;-44
2021/11/13 05:26:10;;;;;;;;;;;;;;;8.83;100.00;100835.94;5036139;28;19948;-47
2021/11/13 05:28:37;;;;;;;;;;;;;;;8.89;100.00;100830.34;5035837;28;20388;-43
2021/11/13 05:31:03;;;;;;;;;;;;;;;8.88;100.00;100841.75;5051410;28;20395;-44
2021/11/13 05:33:30;;;;;;;;;;;;;;;8.89;100.00;100834.72;5035806;28;19988;-45
2021/11/13 05:36:01;;;;;;;;;;;;;;;8.86;100.00;100837.53;5034281;28;19929;-44
2021/11/13 05:38:28;;;;;;;;;;;;;;;8.85;100.00;100835.84;5035145;28;20035;-48
2021/11/13 05:40:55;;;;;;;;;;;;;;;8.89;100.00;100840.81;5035906;28;19994;-47
2021/11/13 05:43:22;;;;;;;;;;;;;;;8.86;100.00;100838.41;5050977;28;19929;-48
2021/11/13 05:45:48;;;;;;;;;;;;;;;8.85;100.00;100841.94;5034163;28;19925;-49
2021/11/13 05:48:16;;;;;;;;;;;;;;;8.88;100.00;100841.75;5030576;28;19972;-44
2021/11/13 05:50:43;;;;;;;;;;;;;;;8.94;100.00;100840.56;5035116;28;19964;-46
2021/11/13 05:53:09;;;;;;;;;;;;;;;8.90;100.00;100844.28;5035557;28;19925;-47
2021/11/13 05:55:36;;;;;;;;;;;;;;;9.03;100.00;100841.81;5035658;28;19948;-47
2021/11/13 05:58:03;;;;;;;;;;;;;;;8.96;100.00;100842.16;5051010;28;20339;-48
2021/11/13 06:00:30;;;;;;;;;;;;;;;8.91;100.00;100852.06;5035465;28;19975;-46
2021/11/13 06:02:57;;;;;;;;;;;;;;;8.92;100.00;100845.06;5035008;28;19929;-48
2021/11/13 06:05:24;;;;;;;;;;;;;;;8.91;100.00;100845.97;5034306;28;19953;-48
2021/11/13 06:07:50;;;;;;;;;;;;;;;8.86;100.00;100855.88;5035240;28;20396;-49
2021/11/13 06:10:18;;;;;;;;;;;;;;;8.87;100.00;100860.22;5033471;28;19925;-46
2021/11/13 06:12:44;;;;;;;;;;;;;;;8.84;100.00;100861.22;5032463;28;19952;-49
2021/11/13 06:15:11;;;;;;;;;;;;;;;8.92;100.00;100861.63;5033881;28;19960;-47
2021/11/13 06:17:38;;;;;;;;;;;;;;;8.88;100.00;100860.13;5035091;28;19983;-50
2021/11/13 06:20:05;;;;;;;;;;;;;;;8.87;100.00;100855.78;5035073;28;19932;-51
2021/11/13 06:22:32;;;;;;;;;;;;;;;8.88;100.00;100854.03;5034052;28;19932;-50
2021/11/13 06:24:58;;;;;;;;;;;;;;;8.87;100.00;100857.59;5034075;28;20013;-49
2021/11/13 06:27:25;;;;;;;;;;;;;;;8.86;100.00;100855.88;5031262;28;19925;-50
2021/11/13 06:29:52;;;;;;;;;;;;;;;8.89;100.00;100851.31;5048901;28;19925;-52
2021/11/13 06:32:18;;;;;;;;;;;;;;;8.85;100.00;100860.31;5034376;28;20407;-51
2021/11/13 06:34:45;;;;;;;;;;;;;;;8.87;100.00;100863.66;5033905;28;20040;-50
2021/11/13 06:37:12;;;;;;;;;;;;;;;8.89;100.00;100860.94;5032240;28;19929;-46
2021/11/13 06:39:38;;;;;;;;;;;;;;;8.89;100.00;100866.19;5033289;28;19932;-49
2021/11/13 06:42:05;;;;;;;;;;;;;;;8.84;100.00;100863.84;5034604;28;20111;-48
2021/11/13 06:44:32;;;;;;;;;;;;;;;8.87;100.00;100868.06;5035032;28;19925;-48
2021/11/13 06:46:59;;;;;;;;;;;;;;;8.88;100.00;100875.03;5034660;28;19925;-50
2021/11/13 06:49:26;;;;;;;;;;;;;;;8.89;100.00;100881.94;5033598;28;20406;-47
2021/11/13 06:51:52;;;;;;;;;;;;;;;8.91;100.00;100880.91;5034623;28;19952;-48
2021/11/13 06:54:19;;;;;;;;;;;;;;;8.89;100.00;100882.78;5034575;28;19928;-49
2021/11/13 06:56:46;;;;;;;;;;;;;;;8.85;100.00;100881.28;5034243;28;19972;-47
2021/11/13 06:59:12;;;;;;;;;;;;;;;8.86;100.00;100885.59;5034213;28;20419;-50
2021/11/13 07:01:39;;;;;;;;;;;;;;;8.81;100.00;100890.25;5034037;28;19972;-46
2021/11/13 07:04:06;;;;;;;;;;;;;;;8.82;100.00;100886.72;5031054;28;20369;-48
2021/11/13 07:06:32;;;;;;;;;;;;;;;8.84;100.00;100907.59;5032779;28;19925;-46
2021/11/13 07:08:59;;;;;;;;;;;;;;;8.80;100.00;100901.66;5034053;28;19929;-47
2021/11/13 07:11:26;;;;;;;;;;;;;;;8.79;100.00;100907.84;5032148;28;19932;-48
2021/11/13 07:13:53;;;;;;;;;;;;;;;8.83;100.00;100903.28;5046810;28;19932;-47
2021/11/13 07:16:19;;;;;;;;;;;;;;;8.78;100.00;100903.53;5048449;28;20019;-47
2021/11/13 07:18:46;;;;;;;;;;;;;;;8.74;100.00;100904.63;5032958;28;20372;-47
2021/11/13 07:21:13;;;;;;;;;;;;;;;8.72;100.00;100907.34;5032667;28;19932;-47
2021/11/13 07:23:39;;;;;;;;;;;;;;;8.73;100.00;100916.91;5047093;28;20324;-51
2021/11/13 07:26:06;;;;;;;;;;;;;;;8.73;100.00;100919.53;5033030;28;20283;-47
2021/11/13 07:28:38;;;;;;;;;;;;;;;8.76;100.00;100924.59;5048940;28;19960;-48
2021/11/13 07:31:06;;;;;;;;;;;;;;;8.77;100.00;100928.91;5030516;28;19932;-52
2021/11/13 07:33:38;;;;;;;;;;;;;;;8.80;100.00;100927.91;5030802;28;19932;-47
2021/11/13 07:36:04;;;;;;;;;;;;;;;8.80;100.00;100930.53;5042773;28;19932;-48
2021/11/13 07:38:31;;;;;;;;;;;;;;;8.84;100.00;100934.66;5041212;28;19925;-46
2021/11/13 07:40:58;;;;;;;;;;;;;;;8.92;100.00;100934.22;5035310;28;20732;-46
2021/11/13 07:43:24;;;;;;;;;;;;;;;8.89;100.00;100944.88;5033250;28;19932;-48
2021/11/13 07:45:51;;;;;;;;;;;;;;;8.90;100.00;100943.97;5047187;28;19971;-50
2021/11/13 07:48:18;;;;;;;;;;;;;;;8.91;100.00;100949.09;5047154;28;19933;-48
2021/11/13 07:50:44;;;;;;;;;;;;;;;8.94;100.00;100948.09;5034772;28;19932;-48
2021/11/13 07:53:11;;;;;;;;;;;;;;;8.93;100.00;100947.25;5045217;28;19925;-48
2021/11/13 07:55:38;;;;;;;;;;;;;;;8.99;100.00;100955.72;5033174;28;19929;-46
2021/11/13 07:58:05;;;;;;;;;;;;;;;9.02;100.00;100960.78;5062337;28;19932;-46
2021/11/13 08:00:32;;;;;;;;;;;;;;;9.05;100.00;100953.59;5063102;28;19971;-50
2021/11/13 08:02:59;;;;;;;;;;;;;;;9.10;100.00;100966.44;5033121;28;20023;-49
2021/11/13 08:05:26;;;;;;;;;;;;;;;9.14;100.00;100966.16;5063243;28;19982;-50
2021/11/13 08:07:53;;;;;;;;;;;;;;;9.19;100.00;100963.31;5030811;28;20364;-52
2021/11/13 08:10:19;;;;;;;;;;;;;;;9.20;100.00;100957.09;5032370;28;19932;-53
2021/11/13 08:12:46;;;;;;;;;;;;;;;9.25;100.00;100968.19;5033204;28;20345;-51
2021/11/13 08:15:14;;;;;;;;;;;;;;;9.29;100.00;100960.97;5031540;28;19929;-49
2021/11/13 08:17:41;;;;;;;;;;;;;;;9.30;100.00;100970.56;5028688;28;19925;-46
2021/11/13 08:20:08;;;;;;;;;;;;;;;9.32;100.00;100968.66;5031420;28;19952;-49
2021/11/13 08:22:36;;;;;;;;;;;;;;;9.34;100.00;100971.19;5031715;28;19955;-47
2021/11/13 08:25:07;;;;;;;;;;;;;;;9.34;100.00;100965.97;5032791;28;19929;-47
2021/11/13 08:27:33;;;;;;;;;;;;;;;9.38;100.00;100968.34;5032231;28;20671;-46
2021/11/13 08:30:01;;;;;;;;;;;;;;;9.39;100.00;100964.75;5029907;28;19925;-50
2021/11/13 08:32:27;;;;;;;;;;;;;;;9.44;100.00;100969.75;5030055;28;19927;-48
2021/11/13 08:34:54;;;;;;;;;;;;;;;9.49;100.00;100970.34;5032364;28;19933;-46
2021/11/13 08:37:21;;;;;;;;;;;;;;;9.50;100.00;100965.91;5064340;28;19925;-47
2021/11/13 08:39:47;;;;;;;;;;;;;;;9.52;100.00;100959.63;5030939;28;20043;-46
2021/11/13 08:42:14;;;;;;;;;;;;;;;9.57;100.00;100969.88;5032807;28;19925;-46
2021/11/13 08:44:44;;;;;;;;;;;;;;;9.58;100.00;100964.50;5032519;28;19936;-47
2021/11/13 08:47:11;;;;;;;;;;;;;;;9.64;100.00;100968.59;5029397;28;19929;-47
2021/11/13 08:49:39;;;;;;;;;;;;;;;9.68;100.00;100963.97;5029653;28;20296;-50
2021/11/13 08:52:06;;;;;;;;;;;;;;;9.73;100.00;100977.69;5032121;28;19925;-52
2021/11/13 08:54:33;;;;;;;;;;;;;;;9.78;100.00;100970.38;5031897;28;19997;-49
2021/11/13 08:57:01;;;;;;;;;;;;;;;9.74;100.00;100972.34;5029703;28;19994;-46
2021/11/13 08:59:27;;;;;;;;;;;;;;;9.81;100.00;100971.03;5030929;28;19925;-49
2021/11/13 09:01:54;;;;;;;;;;;;;;;9.86;100.00;100977.78;5032415;28;19926;-50
2021/11/13 09:04:21;;;;;;;;;;;;;;;9.87;100.00;100980.34;5032363;28;19929;-46
2021/11/13 09:06:48;;;;;;;;;;;;;;;9.91;100.00;100975.72;5032117;28;19925;-47
2021/11/13 09:09:14;;;;;;;;;;;;;;;9.96;100.00;100984.19;5028775;28;20304;-47
2021/11/13 09:11:41;;;;;;;;;;;;;;;10.00;100.00;100987.50;5062304;28;19932;-48
2021/11/13 09:14:10;;;;;;;;;;;;;;;10.05;100.00;100985.41;5031041;28;19933;-49
2021/11/13 09:16:36;;;;;;;;;;;;;;;10.07;100.00;100986.16;5064127;28;19926;-48
2021/11/13 09:19:03;;;;;;;;;;;;;;;10.19;100.00;100992.47;5032214;28;19925;-48
2021/11/13 09:21:32;;;;;;;;;;;;;;;10.18;100.00;100998.66;5063846;28;19929;-48
2021/11/13 09:23:59;;;;;;;;;;;;;;;10.19;100.00;100998.56;5060760;28;20350;-48
2021/11/13 09:26:26;;;;;;;;;;;;;;;10.22;100.00;100997.53;5031170;28;19932;-48
2021/11/13 09:28:55;;;;;;;;;;;;;;;10.28;100.00;101000.63;5030605;28;20262;-47
2021/11/13 09:31:22;;;;;;;;;;;;;;;10.28;100.00;101003.25;5028475;28;19936;-53
2021/11/13 09:33:48;;;;;;;;;;;;;;;10.36;100.00;101013.34;5063535;28;20296;-47
2021/11/13 09:36:15;;;;;;;;;;;;;;;10.41;100.00;101013.06;5032119;28;19981;-48
2021/11/13 09:38:44;;;;;;;;;;;;;;;10.42;100.00;101014.75;5030927;28;20331;-48
2021/11/13 09:41:11;;;;;;;;;;;;;;;10.49;100.00;101013.41;5030451;28;19925;-50
2021/11/13 09:43:38;;;;;;;;;;;;;;;10.56;100.00;101027.88;5034615;28;20326;-50
2021/11/13 09:46:08;;;;;;;;;;;;;;;10.57;100.00;101021.69;5035894;28;20011;-47
2021/11/13 09:48:35;;;;;;;;;;;;;;;10.57;100.00;101026.09;5035564;28;19925;-50
2021/11/13 09:51:03;;;;;;;;;;;;;;;10.63;100.00;101018.69;5034641;28;19960;-52
2021/11/13 09:53:30;;;;;;;;;;;;;;;10.69;100.00;101024.47;5033003;28;19932;-49
2021/11/13 09:55:57;;;;;;;;;;;;;;;10.77;100.00;101024.84;5049679;28;19926;-49
2021/11/13 09:58:24;;;;;;;;;;;;;;;10.79;100.00;101028.22;5033111;28;19932;-48
2021/11/13 10:00:50;;;;;;;;;;;;;;;10.82;100.00;101033.28;5032983;28;20372;-48
2021/11/13 10:03:21;;;;;;;;;;;;;;;10.83;100.00;101033.19;5034672;28;19964;-49
2021/11/13 10:05:52;;;;;;;;;;;;;;;10.92;100.00;101031.78;5035371;28;20007;-50
2021/11/13 10:08:19;;;;;;;;;;;;;;;10.97;100.00;101037.56;5035053;28;19929;-49
2021/11/13 10:10:46;;;;;;;;;;;;;;;11.02;100.00;101036.47;5066967;28;19925;-52
2021/11/13 10:13:23;;;;;;;;;;;;;;;11.04;100.00;101038.03;5035197;28;19925;-47
2021/11/13 10:15:51;;;;;;;;;;;;;;;11.10;100.00;101039.44;5034663;28;20277;-50
2021/11/13 10:18:19;;;;;;;;;;;;;;;11.12;100.00;101040.16;5030331;28;19936;-47
2021/11/13 10:20:50;;;;;;;;;;;;;;;11.14;100.00;101046.19;5033397;28;20020;-49
2021/11/13 10:23:20;;;;;;;;;;;;;;;11.16;100.00;101046.94;5066542;28;19933;-48
2021/11/13 10:26:01;;;;;;;;;;;;;;;11.16;100.00;101046.94;5034882;28;20292;-49
2021/11/13 10:28:28;;;;;;;;;;;;;;;11.16;100.00;101054.81;5034999;28;19925;-48
2021/11/13 10:31:05;;;;;;;;;;;;;;;11.18;100.00;101052.94;5066467;28;19983;-50
2021/11/13 10:33:32;;;;;;;;;;;;;;;11.16;100.00;101052.19;5034961;28;20312;-48
2021/11/13 10:35:59;;;;;;;;;;;;;;;11.16;100.00;101057.47;5034798;28;20387;-50
2021/11/13 10:38:27;;;;;;;;;;;;;;;11.20;100.00;101055.47;5063831;28;19939;-49
2021/11/13 10:40:53;;;;;;;;;;;;;;;11.16;100.00;101058.28;5031246;28;19932;-47
2021/11/13 10:43:20;;;;;;;;;;;;;;;11.16;100.00;101066.19;5034581;28;19979;-49
2021/11/13 10:45:56;;;;;;;;;;;;;;;11.20;100.00;101058.94;5031961;28;19931;-48
2021/11/13 10:48:23;;;;;;;;;;;;;;;11.22;100.00;101059.72;5061872;28;19983;-46
2021/11/13 10:50:50;;;;;;;;;;;;;;;11.15;100.00;101061.03;5049067;28;19965;-48
2021/11/13 10:53:23;;;;;;;;;;;;;;;11.15;100.00;101053.13;5033422;28;19929;-47
2021/11/13 10:56:19;;;;;;;;;;;;;;;11.18;100.00;101060.00;5032170;28;19927;-47
2021/11/13 10:58:55;;;;;;;;;;;;;;;11.23;100.00;101058.75;5059378;28;19933;-47
2021/11/13 11:01:22;;;;;;;;;;;;;;;11.15;100.00;101047.84;5030324;28;20460;-49
2021/11/13 11:03:49;;;;;;;;;;;;;;;11.12;100.00;101053.34;5031565;28;20491;-48
2021/11/13 11:06:20;;;;;;;;;;;;;;;11.24;100.00;101056.97;5065964;28;19932;-50
2021/11/13 11:08:47;;;;;;;;;;;;;;;11.23;100.00;101050.84;5065654;28;19929;-49
2021/11/13 11:11:43;;;;;;;;;;;;;;;11.27;100.00;101054.97;5034000;28;19925;-48
2021/11/13 11:14:11;;;;;;;;;;;;;;;11.31;100.00;101037.19;5036657;28;19940;-46
2021/11/13 11:16:39;;;;;;;;;;;;;;;11.31;100.00;101043.28;5031416;28;20335;-46
2021/11/13 11:19:06;;;;;;;;;;;;;;;11.33;100.00;101040.59;5030592;28;19940;-48
2021/11/13 11:21:36;;;;;;;;;;;;;;;11.29;100.00;101047.81;5031481;28;19925;-46
2021/11/13 11:24:19;;;;;;;;;;;;;;;11.37;100.00;101051.75;5033675;28;19931;-47
2021/11/13 11:26:46;;;;;;;;;;;;;;;11.38;100.00;101048.16;5032434;28;19925;-46
2021/11/13 11:29:12;;;;;;;;;;;;;;;11.44;100.00;101051.25;5033467;28;19925;-51
2021/11/13 11:31:39;;;;;;;;;;;;;;;11.48;100.00;101054.53;5069925;28;19929;-47
2021/11/13 11:34:06;;;;;;;;;;;;;;;11.53;100.00;101065.59;5030124;28;19961;-47
2021/11/13 11:36:33;;;;;;;;;;;;;;;11.53;100.00;101060.31;5030807;28;20234;-46
2021/11/13 11:39:01;;;;;;;;;;;;;;;11.57;100.00;101059.19;5031809;28;19929;-46
2021/11/13 11:41:27;;;;;;;;;;;;;;;11.57;100.00;101058.34;5064898;28;19979;-46
2021/11/13 11:43:54;;;;;;;;;;;;;;;11.57;100.00;101069.72;5031936;28;19932;-47
2021/11/13 11:46:21;;;;;;;;;;;;;;;11.52;100.00;101069.19;5032939;28;19925;-50
2021/11/13 11:48:51;;;;;;;;;;;;;;;11.54;100.00;101063.81;5033025;28;20015;-50
2021/11/13 11:51:18;;;;;;;;;;;;;;;11.62;100.00;101067.63;5061431;28;19932;-49
2021/11/13 11:53:44;;;;;;;;;;;;;;;11.70;100.00;101068.91;5030731;28;20415;-50
2021/11/13 11:56:11;;;;;;;;;;;;;;;11.62;100.00;101072.91;5033008;28;20062;-52
2021/11/13 11:58:38;;;;;;;;;;;;;;;11.68;100.00;101071.63;5031929;28;19929;-51
2021/11/13 12:01:05;;;;;;;;;;;;;;;11.67;100.00;101076.06;5033109;28;20541;-50
2021/11/13 12:03:37;;;;;;;;;;;;;;;11.60;100.00;101072.16;5045202;28;19929;-48
2021/11/13 12:06:04;;;;;;;;;;;;;;;11.56;100.00;101073.31;5029999;28;20296;-49
2021/11/13 12:08:33;;;;;;;;;;;;;;;11.63;100.00;101079.88;5032732;28;19928;-48
2021/11/13 12:11:15;;;;;;;;;;;;;;;11.59;100.00;101078.38;5033044;28;20446;-49
2021/11/13 12:13:41;;;;;;;;;;;;;;;11.70;100.00;101079.44;5032814;28;19933;-50
2021/11/13 12:16:11;;;;;;;;;;;;;;;11.67;100.00;101075.25;5029022;28;19925;-47
2021/11/13 12:18:43;;;;;;;;;;;;;;;11.83;100.00;101078.53;5060638;28;19936;-45
2021/11/13 12:21:11;;;;;;;;;;;;;;;11.96;100.00;101085.66;5033075;28;20007;-49
2021/11/13 12:23:39;;;;;;;;;;;;;;;12.02;100.00;101076.50;5031761;28;19925;-51
2021/11/13 12:26:11;;;;;;;;;;;;;;;12.07;100.00;101079.66;5029822;28;19967;-51
2021/11/13 12:28:47;;;;;;;;;;;;;;;12.11;100.00;101079.34;5032126;28;19929;-53
2021/11/13 12:31:15;;;;;;;;;;;;;;;12.16;100.00;101082.53;5061434;28;20328;-49
2021/11/13 12:33:44;;;;;;;;;;;;;;;12.28;100.00;101086.09;5029794;28;19929;-54
2021/11/13 12:36:13;;;;;;;;;;;;;;;12.25;100.00;101081.03;5032746;28;20273;-49